createdAt,value
2018-01-12T00:02:11.095Z,2.31
2018-01-12T00:04:38.594Z,2.30
2018-01-12T00:07:06.166Z,2.32
2018-01-12T00:09:33.663Z,2.31
2018-01-12T00:12:01.181Z,2.30
2018-01-12T00:14:28.654Z,2.38
2018-01-12T00:16:56.146Z,2.35
2018-01-12T00:19:23.654Z,2.35
2018-01-12T00:21:51.153Z,2.41
2018-01-12T00:24:18.649Z,2.35
2018-01-12T00:26:46.138Z,2.40
2018-01-12T00:29:13.694Z,2.42
2018-01-12T00:31:41.246Z,2.45
2018-01-12T00:34:08.928Z,2.44
2018-01-12T00:36:36.458Z,2.42
2018-01-12T00:39:04.207Z,2.49
2018-01-12T00:41:31.934Z,2.47
2018-01-12T00:43:59.414Z,2.48
2018-01-12T00:46:26.883Z,2.53
2018-01-12T00:48:54.366Z,2.56
2018-01-12T00:51:21.874Z,2.58
2018-01-12T00:53:49.346Z,2.58
2018-01-12T00:56:16.846Z,2.53
2018-01-12T00:58:44.386Z,2.43
2018-01-12T01:01:11.878Z,2.29
2018-01-12T01:03:39.434Z,2.28
2018-01-12T01:06:06.922Z,2.21
2018-01-12T01:08:34.423Z,2.23
2018-01-12T01:11:01.936Z,2.25
2018-01-12T01:13:29.429Z,2.28
2018-01-12T01:15:56.899Z,2.28
2018-01-12T01:18:24.391Z,2.26
2018-01-12T01:20:51.878Z,2.30
2018-01-12T01:23:19.380Z,2.37
2018-01-12T01:25:47.177Z,2.38
2018-01-12T01:28:14.671Z,2.36
2018-01-12T01:30:42.166Z,2.35
2018-01-12T01:33:09.660Z,2.38
2018-01-12T01:35:37.142Z,2.40
2018-01-12T01:38:04.636Z,2.37
2018-01-12T01:40:32.294Z,2.38
2018-01-12T01:42:59.802Z,2.32
2018-01-12T01:45:27.293Z,2.24
2018-01-12T01:47:54.822Z,2.34
2018-01-12T01:50:22.313Z,2.39
2018-01-12T01:52:49.800Z,2.40
2018-01-12T01:55:17.309Z,2.41
2018-01-12T01:57:44.774Z,2.42
2018-01-12T02:00:12.257Z,2.40
2018-01-12T02:02:39.766Z,2.44
2018-01-12T02:05:07.250Z,2.42
2018-01-12T02:07:34.730Z,2.43
2018-01-12T02:10:02.242Z,2.38
2018-01-12T02:12:29.743Z,2.27
2018-01-12T02:14:57.246Z,2.21
2018-01-12T02:17:24.752Z,2.25
2018-01-12T02:19:52.255Z,2.20
2018-01-12T02:22:19.746Z,2.22
2018-01-12T02:24:47.263Z,2.26
2018-01-12T02:27:14.762Z,2.31
2018-01-12T02:29:42.242Z,2.36
2018-01-12T02:32:09.755Z,2.37
2018-01-12T02:34:37.282Z,2.37
2018-01-12T02:37:04.748Z,2.34
2018-01-12T02:39:32.251Z,2.31
2018-01-12T02:41:59.731Z,2.34
2018-01-12T02:44:27.252Z,2.34
2018-01-12T02:46:54.768Z,2.32
2018-01-12T02:49:22.236Z,2.30
2018-01-12T02:51:49.704Z,2.33
2018-01-12T02:54:17.224Z,2.29
2018-01-12T02:56:44.704Z,2.16
2018-01-12T02:59:12.202Z,2.21
2018-01-12T03:01:39.942Z,2.16
2018-01-12T03:04:07.422Z,2.12
2018-01-12T03:06:34.926Z,2.10
2018-01-12T03:09:02.441Z,2.08
2018-01-12T03:11:29.941Z,2.14
2018-01-12T03:13:57.430Z,2.17
2018-01-12T03:16:24.915Z,2.18
2018-01-12T03:18:52.416Z,2.25
2018-01-12T03:21:19.931Z,2.31
2018-01-12T03:23:47.428Z,2.21
2018-01-12T03:26:14.911Z,2.09
2018-01-12T03:28:42.406Z,2.02
2018-01-12T03:31:09.931Z,2.00
2018-01-12T03:33:37.425Z,1.94
2018-01-12T03:36:04.890Z,1.93
2018-01-12T03:38:32.398Z,1.94
2018-01-12T03:40:59.878Z,1.98
2018-01-12T03:43:27.341Z,1.97
2018-01-12T03:45:54.831Z,1.98
2018-01-12T03:48:22.314Z,2.00
2018-01-12T03:50:49.785Z,2.04
2018-01-12T03:53:17.313Z,1.97
2018-01-12T03:55:44.806Z,1.90
2018-01-12T03:58:12.301Z,1.88
2018-01-12T04:00:39.786Z,1.85
2018-01-12T04:03:07.252Z,1.84
2018-01-12T04:05:34.730Z,1.85
2018-01-12T04:08:02.246Z,1.87
2018-01-12T04:10:29.718Z,1.83
2018-01-12T04:12:57.228Z,1.81
2018-01-12T04:15:24.749Z,1.83
2018-01-12T04:17:52.244Z,1.85
2018-01-12T04:20:19.738Z,1.80
2018-01-12T04:22:47.269Z,1.78
2018-01-12T04:25:14.749Z,1.79
2018-01-12T04:27:42.207Z,1.79
2018-01-12T04:30:09.726Z,1.86
2018-01-12T04:32:37.186Z,1.91
2018-01-12T04:35:04.676Z,1.97
2018-01-12T04:37:32.185Z,1.92
2018-01-12T04:39:59.658Z,1.82
2018-01-12T04:42:27.118Z,1.86
2018-01-12T04:44:54.854Z,1.88
2018-01-12T04:47:22.384Z,1.93
2018-01-12T04:49:49.887Z,1.87
2018-01-12T04:52:17.406Z,1.93
2018-01-12T04:54:44.913Z,1.97
2018-01-12T04:57:12.398Z,2.05
2018-01-12T04:59:39.924Z,2.09
2018-01-12T05:02:07.382Z,2.08
2018-01-12T05:04:34.890Z,2.08
2018-01-12T05:07:02.376Z,2.16
2018-01-12T05:09:29.854Z,2.08
2018-01-12T05:11:57.338Z,1.85
2018-01-12T05:14:24.804Z,1.82
2018-01-12T05:16:52.282Z,1.87
2018-01-12T05:19:19.782Z,1.92
2018-01-12T05:21:47.269Z,1.91
2018-01-12T05:24:14.761Z,1.89
2018-01-12T05:26:42.272Z,1.97
2018-01-12T05:29:09.748Z,2.02
2018-01-12T05:31:37.232Z,1.99
2018-01-12T05:34:04.763Z,1.86
2018-01-12T05:36:32.253Z,1.79
2018-01-12T05:38:59.723Z,1.79
2018-01-12T05:41:27.206Z,1.80
2018-01-12T05:43:54.706Z,1.85
2018-01-12T05:46:22.191Z,1.86
2018-01-12T05:48:49.714Z,1.90
2018-01-12T05:51:17.182Z,1.89
2018-01-12T05:53:44.662Z,1.78
2018-01-12T05:56:12.396Z,1.71
2018-01-12T05:58:39.918Z,1.71
2018-01-12T06:01:19.265Z,1.70
2018-01-12T06:03:58.705Z,1.70
2018-01-12T06:06:26.189Z,1.69
2018-01-12T06:08:53.650Z,1.64
2018-01-12T06:11:21.201Z,1.58
2018-01-12T06:13:48.725Z,1.65
2018-01-12T06:16:16.222Z,1.73
2018-01-12T06:18:43.706Z,1.78
2018-01-12T06:21:11.179Z,1.67
2018-01-12T06:23:38.646Z,1.64
2018-01-12T06:26:06.158Z,1.70
2018-01-12T06:28:33.649Z,1.67
2018-01-12T06:31:01.134Z,1.62
2018-01-12T06:33:28.633Z,1.64
2018-01-12T06:35:56.156Z,1.70
2018-01-12T06:38:23.622Z,1.66
2018-01-12T06:40:51.122Z,1.58
2018-01-12T06:43:18.624Z,1.70
2018-01-12T06:45:46.122Z,1.73
2018-01-12T06:48:13.820Z,1.75
2018-01-12T06:50:41.298Z,1.80
2018-01-12T06:53:08.768Z,1.76
2018-01-12T06:55:36.275Z,1.66
2018-01-12T06:58:03.794Z,1.66
2018-01-12T07:00:31.293Z,1.73
2018-01-12T07:02:58.823Z,1.73
2018-01-12T07:05:26.356Z,1.73
2018-01-12T07:07:53.823Z,1.61
2018-01-12T07:10:21.303Z,1.57
2018-01-12T07:12:48.825Z,1.57
2018-01-12T07:15:16.390Z,1.63
2018-01-12T07:17:43.873Z,1.66
2018-01-12T07:20:23.274Z,1.65
2018-01-12T07:23:02.651Z,1.58
2018-01-12T07:25:30.233Z,1.53
2018-01-12T07:27:57.759Z,1.55
2018-01-12T07:30:25.282Z,1.51
2018-01-12T07:32:52.775Z,1.46
2018-01-12T07:35:20.302Z,1.56
2018-01-12T07:37:47.838Z,1.67
2018-01-12T07:40:15.351Z,1.76
2018-01-12T07:42:42.819Z,1.81
2018-01-12T07:45:10.290Z,1.83
2018-01-12T07:47:37.785Z,1.85
2018-01-12T07:50:05.286Z,1.81
2018-01-12T07:52:32.789Z,1.84
2018-01-12T07:55:00.296Z,1.88
2018-01-12T07:57:27.771Z,1.77
2018-01-12T07:59:55.234Z,1.59
2018-01-12T08:05:24.706Z,1.70
2018-01-12T08:07:52.182Z,1.72
2018-01-12T08:10:19.661Z,1.62
2018-01-12T08:12:47.149Z,1.62
2018-01-12T08:15:14.634Z,1.75
2018-01-12T08:17:42.156Z,1.76
2018-01-12T08:20:09.631Z,1.72
2018-01-12T08:22:37.134Z,1.62
2018-01-12T08:25:04.600Z,1.66
2018-01-12T08:27:32.078Z,1.74
2018-01-12T08:29:59.581Z,1.85
2018-01-12T08:32:27.070Z,1.95
2018-01-12T08:34:54.530Z,1.96
2018-01-12T08:37:22.047Z,1.94
2018-01-12T08:39:49.593Z,1.87
2018-01-12T08:42:17.064Z,1.90
2018-01-12T08:44:44.537Z,1.80
2018-01-12T08:47:12.018Z,1.78
2018-01-12T08:49:39.503Z,1.80
2018-01-12T08:52:07.015Z,1.92
2018-01-12T08:54:34.526Z,1.98
2018-01-12T08:57:02.014Z,2.00
2018-01-12T08:59:29.565Z,1.90
2018-01-12T09:01:57.044Z,1.82
2018-01-12T09:04:24.607Z,1.84
2018-01-12T09:06:52.109Z,1.73
2018-01-12T09:09:19.589Z,1.80
2018-01-12T09:11:47.075Z,1.80
2018-01-12T09:14:26.442Z,1.82
2018-01-12T09:16:53.934Z,1.87
2018-01-12T09:19:33.164Z,1.92
2018-01-12T09:22:00.638Z,1.98
2018-01-12T09:24:28.104Z,1.95
2018-01-12T09:26:55.842Z,1.84
2018-01-12T09:29:23.341Z,1.92
2018-01-12T09:31:51.557Z,1.91
2018-01-12T09:34:31.168Z,1.92
2018-01-12T09:36:58.654Z,1.93
2018-01-12T09:39:38.149Z,2.00
2018-01-12T09:42:05.667Z,2.07
2018-01-12T09:44:33.136Z,2.13
2018-01-12T09:47:12.785Z,2.14
2018-01-12T09:49:47.922Z,2.17
2018-01-12T09:52:15.442Z,2.21
2018-01-12T09:54:42.906Z,2.22
2018-01-12T09:57:10.370Z,2.26
2018-01-12T09:59:43.790Z,2.28
2018-01-12T10:02:11.285Z,2.17
2018-01-12T10:04:38.767Z,2.15
2018-01-12T10:07:17.219Z,2.22
2018-01-12T10:09:48.433Z,2.16
2018-01-12T10:12:15.898Z,2.22
2018-01-12T10:14:43.431Z,2.14
2018-01-12T10:17:10.917Z,2.09
2018-01-12T10:22:42.615Z,2.09
2018-01-12T10:25:10.171Z,2.12
2018-01-12T10:27:37.641Z,2.16
2018-01-12T10:30:24.153Z,2.00
2018-01-12T10:33:03.551Z,2.07
2018-01-12T10:35:31.046Z,2.20
2018-01-12T10:37:58.515Z,2.26
2018-01-12T10:40:47.531Z,2.35
2018-01-12T10:43:15.034Z,2.37
2018-01-12T10:45:54.350Z,2.32
2018-01-12T10:48:33.662Z,2.28
2018-01-12T10:51:12.941Z,2.17
2018-01-12T10:53:40.408Z,2.23
2018-01-12T10:56:07.913Z,2.23
2018-01-12T10:58:35.415Z,2.26
2018-01-12T11:01:09.394Z,2.29
2018-01-12T11:03:36.894Z,2.13
2018-01-12T11:06:04.606Z,2.20
2018-01-12T11:08:32.096Z,2.28
2018-01-12T11:10:59.586Z,2.31
2018-01-12T11:13:27.109Z,2.37
2018-01-12T11:15:54.609Z,2.38
2018-01-12T11:18:22.086Z,2.21
2018-01-12T11:20:49.594Z,2.02
2018-01-12T11:23:17.084Z,2.09
2018-01-12T11:25:44.559Z,2.09
2018-01-12T11:28:12.066Z,2.16
2018-01-12T11:30:39.548Z,2.14
2018-01-12T11:33:07.036Z,1.99
2018-01-12T11:35:34.520Z,1.88
2018-01-12T11:38:02.000Z,1.90
2018-01-12T11:40:29.503Z,1.88
2018-01-12T11:42:56.999Z,1.87
2018-01-12T11:45:24.498Z,1.86
2018-01-12T11:47:52.014Z,1.81
2018-01-12T11:50:19.484Z,1.77
2018-01-12T11:52:47.001Z,1.91
2018-01-12T11:55:14.494Z,2.05
2018-01-12T11:57:41.973Z,2.13
2018-01-12T12:00:09.470Z,2.10
2018-01-12T12:02:37.138Z,2.12
2018-01-12T12:05:04.650Z,2.09
2018-01-12T12:07:32.110Z,1.84
2018-01-12T12:09:59.633Z,1.84
2018-01-12T12:12:27.123Z,1.94
2018-01-12T12:14:54.636Z,1.98
2018-01-12T12:17:22.150Z,2.00
2018-01-12T12:19:49.613Z,1.90
2018-01-12T12:22:17.143Z,1.84
2018-01-12T12:24:44.666Z,1.87
2018-01-12T12:27:12.138Z,1.90
2018-01-12T12:29:39.604Z,1.86
2018-01-12T12:32:07.141Z,1.86
2018-01-12T12:34:34.703Z,1.85
2018-01-12T12:37:02.179Z,2.00
2018-01-12T12:39:29.695Z,2.06
2018-01-12T12:41:57.198Z,2.09
2018-01-12T12:44:24.714Z,2.19
2018-01-12T12:46:52.206Z,2.21
2018-01-12T12:51:53.642Z,2.24
2018-01-12T12:54:21.130Z,2.23
2018-01-12T12:56:48.594Z,2.16
2018-01-12T12:59:16.109Z,2.11
2018-01-12T13:01:43.793Z,2.09
2018-01-12T13:04:11.299Z,2.13
2018-01-12T13:06:38.795Z,2.15
2018-01-12T13:09:06.265Z,2.18
2018-01-12T13:11:33.766Z,2.10
2018-01-12T13:14:01.305Z,2.16
2018-01-12T13:16:28.772Z,2.15
2018-01-12T13:18:56.306Z,2.17
2018-01-12T13:21:23.880Z,2.19
2018-01-12T13:23:51.406Z,2.11
2018-01-12T13:26:18.922Z,2.17
2018-01-12T13:28:46.415Z,2.19
2018-01-12T13:31:13.978Z,2.45
2018-01-12T13:33:41.505Z,2.29
2018-01-12T13:36:08.998Z,2.13
2018-01-12T13:38:36.458Z,2.15
2018-01-12T13:41:04.011Z,2.11
2018-01-12T13:43:31.587Z,2.34
2018-01-12T13:45:59.592Z,2.32
2018-01-12T13:48:27.151Z,2.22
2018-01-12T13:50:54.640Z,2.07
2018-01-12T13:53:22.129Z,2.05
2018-01-12T13:55:49.617Z,2.16
2018-01-12T13:58:17.134Z,2.19
2018-01-12T14:00:44.590Z,2.18
2018-01-12T14:03:12.120Z,2.11
2018-01-12T14:05:39.594Z,2.07
2018-01-12T14:08:07.087Z,2.02
2018-01-12T14:10:34.570Z,2.05
2018-01-12T14:13:02.034Z,2.03
2018-01-12T14:15:29.505Z,2.09
2018-01-12T14:17:57.046Z,2.04
2018-01-12T14:20:24.546Z,2.10
2018-01-12T14:22:52.035Z,2.17
2018-01-12T14:25:19.541Z,2.17
2018-01-12T14:27:47.082Z,2.08
2018-01-12T14:30:14.551Z,2.15
2018-01-12T14:32:42.053Z,2.13
2018-01-12T14:35:09.551Z,2.09
2018-01-12T14:37:37.069Z,2.08
2018-01-12T14:40:04.557Z,2.12
2018-01-12T14:42:32.067Z,2.14
2018-01-12T14:44:59.555Z,2.18
2018-01-12T14:47:27.154Z,2.08
2018-01-12T14:49:55.308Z,2.10
2018-01-12T14:52:22.882Z,2.05
2018-01-12T14:54:50.444Z,2.00
2018-01-12T14:57:17.909Z,1.99
2018-01-12T14:59:45.402Z,2.06
2018-01-12T15:02:12.868Z,2.06
2018-01-12T15:04:40.369Z,2.11
2018-01-12T15:07:08.149Z,2.21
2018-01-12T15:09:35.629Z,2.31
2018-01-12T15:12:03.115Z,2.32
2018-01-12T15:14:30.666Z,2.35
2018-01-12T15:16:58.144Z,2.35
2018-01-12T15:19:25.645Z,2.33
2018-01-12T15:21:53.184Z,2.20
2018-01-12T15:24:20.694Z,2.08
2018-01-12T15:26:48.185Z,2.04
2018-01-12T15:29:15.814Z,2.04
2018-01-12T15:31:43.374Z,2.06
2018-01-12T15:34:10.830Z,2.03
2018-01-12T15:36:38.429Z,2.02
2018-01-12T15:39:05.905Z,2.08
2018-01-12T15:41:33.376Z,2.10
2018-01-12T15:44:00.861Z,1.98
2018-01-12T15:46:28.337Z,2.01
2018-01-12T15:48:55.826Z,2.02
2018-01-12T15:51:23.321Z,2.05
2018-01-12T15:53:50.856Z,2.09
2018-01-12T15:56:18.385Z,2.12
2018-01-12T15:58:45.861Z,2.02
2018-01-12T16:01:13.378Z,1.88
2018-01-12T16:03:40.835Z,1.88
2018-01-12T16:06:08.336Z,1.97
2018-01-12T16:08:36.042Z,2.06
2018-01-12T16:11:03.551Z,2.12
2018-01-12T16:13:31.013Z,2.16
2018-01-12T16:15:58.542Z,2.19
2018-01-12T16:18:26.017Z,2.12
2018-01-12T16:20:53.504Z,2.06
2018-01-12T16:23:20.999Z,2.10
2018-01-12T16:25:48.463Z,2.06
2018-01-12T16:28:15.934Z,2.08
2018-01-12T16:30:43.511Z,2.05
2018-01-12T16:33:11.001Z,2.00
2018-01-12T16:35:38.509Z,1.99
2018-01-12T16:38:06.080Z,2.05
2018-01-12T16:40:33.541Z,2.07
2018-01-12T16:43:01.049Z,2.14
2018-01-12T16:45:28.526Z,2.11
2018-01-12T16:47:56.045Z,2.15
2018-01-12T16:50:23.542Z,2.17
2018-01-12T16:52:51.068Z,2.11
2018-01-12T16:55:18.541Z,2.16
2018-01-12T16:57:46.139Z,2.15
2018-01-12T17:00:13.633Z,2.19
2018-01-12T17:02:41.157Z,2.05
2018-01-12T17:05:08.733Z,2.09
2018-01-12T17:07:36.193Z,2.15
2018-01-12T17:10:03.726Z,2.14
2018-01-12T17:12:31.386Z,2.17
2018-01-12T17:14:58.868Z,2.18
2018-01-12T17:17:26.333Z,2.17
2018-01-12T17:19:53.819Z,2.22
2018-01-12T17:22:21.302Z,2.16
2018-01-12T17:24:48.798Z,2.18
2018-01-12T17:27:16.293Z,2.08
2018-01-12T17:29:43.754Z,2.00
2018-01-12T17:32:11.231Z,2.06
2018-01-12T17:34:38.716Z,2.08
2018-01-12T17:37:06.182Z,1.95
2018-01-12T17:39:34.032Z,1.91
2018-01-12T17:42:01.584Z,1.97
2018-01-12T17:44:29.064Z,2.02
2018-01-12T17:46:56.607Z,2.09
2018-01-12T17:49:24.138Z,2.15
2018-01-12T17:51:51.645Z,2.13
2018-01-12T17:54:19.140Z,2.12
2018-01-12T17:56:46.608Z,2.17
2018-01-12T17:59:14.336Z,2.15
2018-01-12T18:01:42.062Z,2.20
2018-01-12T18:04:09.624Z,2.23
2018-01-12T18:06:37.098Z,2.22
2018-01-12T18:09:04.621Z,2.14
2018-01-12T18:11:32.129Z,2.13
2018-01-12T18:13:59.686Z,2.04
2018-01-12T18:16:27.158Z,2.06
2018-01-12T18:18:55.035Z,2.04
2018-01-12T18:21:22.548Z,2.02
2018-01-12T18:23:50.424Z,2.00
2018-01-12T18:26:17.905Z,2.01
2018-01-12T18:28:45.399Z,2.09
2018-01-12T18:31:12.899Z,2.13
2018-01-12T18:33:40.434Z,2.03
2018-01-12T18:36:07.898Z,1.96
2018-01-12T18:38:35.369Z,1.93
2018-01-12T18:41:03.711Z,1.84
2018-01-12T18:43:31.209Z,1.83
2018-01-12T18:45:59.007Z,1.86
2018-01-12T18:48:26.519Z,1.87
2018-01-12T18:50:54.031Z,1.95
2018-01-12T18:53:22.259Z,2.03
2018-01-12T18:55:49.805Z,2.06
2018-01-12T18:58:17.310Z,2.06
2018-01-12T19:00:44.820Z,2.07
2018-01-12T19:03:12.363Z,2.04
2018-01-12T19:05:39.938Z,2.05
2018-01-12T19:08:07.444Z,2.04
2018-01-12T19:10:34.957Z,2.03
2018-01-12T19:13:02.461Z,2.01
2018-01-12T19:15:29.952Z,2.02
2018-01-12T19:17:57.470Z,2.03
2018-01-12T19:20:24.930Z,2.03
2018-01-12T19:22:52.430Z,2.04
2018-01-12T19:25:19.924Z,2.00
2018-01-12T19:27:47.426Z,1.86
2018-01-12T19:30:14.906Z,1.81
2018-01-12T19:32:42.406Z,1.73
2018-01-12T19:35:09.867Z,1.68
2018-01-12T19:37:37.412Z,1.69
2018-01-12T19:40:04.961Z,1.75
2018-01-12T19:42:32.488Z,1.80
2018-01-12T19:44:59.981Z,1.84
2018-01-12T19:47:27.506Z,1.86
2018-01-12T19:49:55.002Z,1.78
2018-01-12T19:52:22.477Z,1.79
2018-01-12T19:54:49.963Z,1.76
2018-01-12T19:57:17.422Z,1.74
2018-01-12T19:59:44.901Z,1.67
2018-01-12T20:02:12.406Z,1.69
2018-01-12T20:04:39.892Z,1.74
2018-01-12T20:07:07.438Z,1.72
2018-01-12T20:09:34.915Z,1.77
2018-01-12T20:12:02.407Z,1.83
2018-01-12T20:14:29.898Z,1.86
2018-01-12T20:16:57.537Z,1.92
2018-01-12T20:19:25.036Z,1.91
2018-01-12T20:21:52.556Z,1.92
2018-01-12T20:24:20.094Z,1.87
2018-01-12T20:26:47.561Z,1.88
2018-01-12T20:29:15.141Z,1.73
2018-01-12T20:31:42.650Z,1.73
2018-01-12T20:34:10.147Z,1.70
2018-01-12T20:36:37.647Z,1.72
2018-01-12T20:39:05.126Z,1.74
2018-01-12T20:41:32.596Z,1.71
2018-01-12T20:44:00.122Z,1.64
2018-01-12T20:46:27.630Z,1.58
2018-01-12T20:48:55.088Z,1.54
2018-01-12T20:51:22.942Z,1.63
2018-01-12T20:53:50.445Z,1.64
2018-01-12T20:56:17.955Z,1.70
2018-01-12T20:58:45.427Z,1.58
2018-01-12T21:01:12.908Z,1.63
2018-01-12T21:03:40.378Z,1.55
2018-01-12T21:06:07.906Z,1.54
2018-01-12T21:08:35.398Z,1.56
2018-01-12T21:11:02.870Z,1.67
2018-01-12T21:13:30.386Z,1.76
2018-01-12T21:15:57.852Z,1.76
2018-01-12T21:18:25.315Z,1.75
2018-01-12T21:20:52.872Z,1.73
2018-01-12T21:23:20.348Z,1.68
2018-01-12T21:25:47.833Z,1.71
2018-01-12T21:28:15.313Z,1.75
2018-01-12T21:30:43.340Z,1.73
2018-01-12T21:33:10.824Z,1.62
2018-01-12T21:35:38.763Z,1.55
2018-01-12T21:38:06.290Z,1.58
2018-01-12T21:40:33.762Z,1.53
2018-01-12T21:43:01.230Z,1.54
2018-01-12T21:45:28.993Z,1.43
2018-01-12T21:47:56.713Z,1.47
2018-01-12T21:50:24.194Z,1.56
2018-01-12T21:52:51.689Z,1.69
2018-01-12T21:55:19.220Z,1.69
2018-01-12T21:57:49.628Z,1.61
2018-01-12T22:00:17.149Z,1.61
2018-01-12T22:02:45.089Z,1.81
2018-01-12T22:05:12.574Z,1.83
2018-01-12T22:07:40.069Z,1.79
2018-01-12T22:10:07.571Z,1.62
2018-01-12T22:12:35.030Z,1.55
2018-01-12T22:15:03.488Z,1.49
2018-01-12T22:17:30.998Z,1.54
2018-01-12T22:19:58.654Z,1.68
2018-01-12T22:22:26.385Z,1.73
2018-01-12T22:24:53.865Z,1.61
2018-01-12T22:27:21.538Z,1.53
2018-01-12T22:29:49.039Z,1.54
2018-01-12T22:32:16.511Z,1.55
2018-01-12T22:34:44.032Z,1.59
2018-01-12T22:37:11.550Z,1.53
2018-01-12T22:39:39.297Z,1.46
2018-01-12T22:42:06.798Z,1.39
2018-01-12T22:44:34.279Z,1.35
2018-01-12T22:47:01.792Z,1.41
2018-01-12T22:49:29.716Z,1.45
2018-01-12T22:51:57.224Z,1.42
2018-01-12T22:54:24.694Z,1.39
2018-01-12T22:56:52.525Z,1.45
2018-01-12T22:59:20.022Z,1.52
2018-01-12T23:01:48.099Z,1.62
2018-01-12T23:04:15.570Z,1.48
2018-01-12T23:06:43.087Z,1.29
2018-01-12T23:09:10.598Z,1.45
2018-01-12T23:11:38.093Z,1.45
2018-01-12T23:14:05.590Z,1.46
2018-01-12T23:16:33.072Z,1.39
2018-01-12T23:19:00.563Z,1.45
2018-01-12T23:21:28.068Z,1.42
2018-01-12T23:23:55.546Z,1.54
2018-01-12T23:26:23.030Z,1.51
2018-01-12T23:28:50.581Z,1.51
2018-01-12T23:31:18.077Z,1.47
2018-01-12T23:33:45.592Z,1.41
2018-01-12T23:36:13.096Z,1.41
2018-01-12T23:38:40.661Z,1.35
2018-01-12T23:41:08.138Z,1.33
2018-01-12T23:43:35.623Z,1.36
2018-01-12T23:46:03.095Z,1.34
2018-01-12T23:48:30.586Z,1.33
2018-01-12T23:50:58.089Z,1.34
2018-01-12T23:53:25.585Z,1.34
2018-01-12T23:55:53.064Z,1.31
2018-01-12T23:58:20.639Z,1.28
